Time;durP1;ratioP1;P1;durP2;ratioP2;P2;SDS_P1;SDS_P2;PMS_P1;PMS_P2;Temp;Humidity;BMP_temperature;BMP_pressure;BME280_temperature;BME280_humidity;BME280_pressure;Samples;Min_cycle;Max_cycle;Signal;HPM_P1;HPM_P2
2022/05/23 00:01:58;;;;;;;;;;;;;;;35.69;21.99;99680.13;4412946;32;19974;-70
2022/05/23 00:04:24;;;;;;;;;;;;;;;35.41;22.35;99685.06;4410750;32;19989;-70
2022/05/23 00:06:49;;;;;;;;;;;;;;;35.71;22.08;99686.88;4410479;32;20292;-69
2022/05/23 00:09:15;;;;;;;;;;;;;;;35.78;21.98;99677.06;4414899;32;19949;-69
2022/05/23 00:11:41;;;;;;;;;;;;;;;35.70;22.11;99682.44;4411719;32;19999;-69
2022/05/23 00:14:06;;;;;;;;;;;;;;;35.74;22.01;99670.94;4412772;32;20351;-69
2022/05/23 00:16:35;;;;;;;;;;;;;;;35.68;22.09;99666.91;4415082;32;19971;-69
2022/05/23 00:19:01;;;;;;;;;;;;;;;35.76;22.08;99673.25;4413332;32;20451;-69
2022/05/23 00:21:26;;;;;;;;;;;;;;;35.85;22.19;99664.34;4415096;32;20053;-69
2022/05/23 00:23:52;;;;;;;;;;;;;;;35.34;22.74;99664.84;4415687;32;20216;-69
2022/05/23 00:26:19;;;;;;;;;;;;;;;35.32;22.83;99670.53;4417149;32;20023;-69
2022/05/23 00:28:45;;;;;;;;;;;;;;;34.82;23.65;99668.13;4411702;32;19981;-69
2022/05/23 00:31:11;;;;;;;;;;;;;;;34.98;23.23;99665.47;4416606;32;20010;-69
2022/05/23 00:36:25;;;;;;;;;;;;;;;35.18;23.29;99664.56;4418008;32;20357;-69
2022/05/23 00:38:51;;;;;;;;;;;;;;;35.48;22.94;99654.75;4416077;32;19957;-69
2022/05/23 00:44:23;;;;;;;;;;;;;;;34.98;23.42;99657.47;4417435;32;20525;-69
2022/05/23 00:49:29;;;;;;;;;;;;;;;35.51;23.08;99635.13;3959783;31;15794414;-70
2022/05/23 00:51:57;;;;;;;;;;;;;;;35.51;23.08;99635.13;4436313;32;19996;-70
2022/05/23 00:54:23;;;;;;;;;;;;;;;35.04;23.50;99637.38;4434260;32;20133;-69
2022/05/23 00:56:51;;;;;;;;;;;;;;;35.03;23.43;99638.75;4435999;32;20011;-70
2022/05/23 00:59:19;;;;;;;;;;;;;;;35.12;23.29;99631.25;4435769;32;20000;-70
2022/05/23 01:01:46;;;;;;;;;;;;;;;35.40;23.08;99627.16;4435999;32;20389;-70
2022/05/23 01:04:12;;;;;;;;;;;;;;;35.21;23.16;99625.25;4435599;32;19988;-70
2022/05/23 01:06:37;;;;;;;;;;;;;;;35.23;22.98;99628.31;4432124;32;20033;-70
2022/05/23 01:09:03;;;;;;;;;;;;;;;35.27;23.09;99613.94;4436975;32;20402;-70
2022/05/23 01:11:28;;;;;;;;;;;;;;;35.29;22.95;99614.06;4435222;32;19957;-70
2022/05/23 01:13:54;;;;;;;;;;;;;;;35.14;23.15;99611.66;4436175;32;20416;-70
2022/05/23 01:16:21;;;;;;;;;;;;;;;35.25;22.99;99613.78;4434505;32;20016;-70
2022/05/23 01:18:48;;;;;;;;;;;;;;;35.50;22.73;99616.06;4434414;32;19961;-70
2022/05/23 01:21:19;;;;;;;;;;;;;;;35.30;22.88;99615.56;4434114;32;19964;-70
2022/05/23 01:23:50;;;;;;;;;;;;;;;34.89;23.36;99623.25;4433976;32;19957;-70
2022/05/23 01:26:15;;;;;;;;;;;;;;;35.00;23.23;99621.75;4432748;32;19956;-70
2022/05/23 01:28:41;;;;;;;;;;;;;;;34.76;23.55;99612.19;4435309;32;20562;-70
2022/05/23 01:31:09;;;;;;;;;;;;;;;34.92;23.25;99615.38;4432423;32;19976;-70
2022/05/23 01:33:35;;;;;;;;;;;;;;;34.89;23.32;99614.50;4432615;32;19965;-70
2022/05/23 01:36:01;;;;;;;;;;;;;;;34.67;23.63;99607.22;4434661;32;20450;-70
2022/05/23 01:38:30;;;;;;;;;;;;;;;34.94;23.32;99603.81;4433830;32;20164;-70
2022/05/23 01:40:56;;;;;;;;;;;;;;;34.93;23.13;99611.03;4435271;32;19953;-70
2022/05/23 01:43:21;;;;;;;;;;;;;;;34.81;23.41;99605.19;4433202;32;19969;-70
2022/05/23 01:45:47;;;;;;;;;;;;;;;35.20;22.97;99609.12;4434313;32;21064;-70
2022/05/23 01:48:12;;;;;;;;;;;;;;;35.21;22.98;99601.84;4432511;32;19961;-70
2022/05/23 01:50:38;;;;;;;;;;;;;;;35.14;23.20;99605.81;4436582;32;19971;-70
2022/05/23 01:53:04;;;;;;;;;;;;;;;35.33;22.88;99598.91;4434938;32;19972;-70
2022/05/23 01:55:30;;;;;;;;;;;;;;;35.06;23.15;99607.50;4435199;32;19949;-70
2022/05/23 01:57:55;;;;;;;;;;;;;;;35.20;23.15;99599.56;4433941;32;20086;-70
2022/05/23 02:03:09;;;;;;;;;;;;;;;35.31;22.82;99599.53;4421628;32;20780;-69
2022/05/23 02:05:35;;;;;;;;;;;;;;;34.73;23.10;99603.91;4425943;32;20913;-70
2022/05/23 02:08:01;;;;;;;;;;;;;;;35.35;22.68;99599.06;4422277;32;19957;-69
2022/05/23 02:10:28;;;;;;;;;;;;;;;35.09;22.63;99595.25;4426425;32;19993;-69
2022/05/23 02:12:56;;;;;;;;;;;;;;;34.73;21.96;99592.22;4423485;32;20034;-69
2022/05/23 02:15:21;;;;;;;;;;;;;;;34.89;22.11;99596.94;4423117;32;20004;-69
2022/05/23 02:17:48;;;;;;;;;;;;;;;34.17;22.21;99577.66;4423491;32;20386;-69
2022/05/23 02:20:13;;;;;;;;;;;;;;;34.17;22.35;99583.50;4423493;32;19994;-69
2022/05/23 02:22:39;;;;;;;;;;;;;;;34.22;22.14;99586.06;4416998;32;20039;-70
2022/05/23 02:25:05;;;;;;;;;;;;;;;34.05;22.07;99591.50;4421762;32;20051;-69
2022/05/23 02:27:30;;;;;;;;;;;;;;;34.42;21.50;99577.09;4425304;32;19972;-68
2022/05/23 02:29:56;;;;;;;;;;;;;;;34.01;21.91;99579.53;4425508;32;20343;-69
2022/05/23 02:32:22;;;;;;;;;;;;;;;34.16;21.84;99567.37;4422865;32;20062;-69
2022/05/23 02:34:48;;;;;;;;;;;;;;;34.42;21.51;99561.09;4421976;32;19961;-69
2022/05/23 02:37:13;;;;;;;;;;;;;;;34.30;21.56;99569.03;4422841;32;19988;-69
2022/05/23 02:39:39;;;;;;;;;;;;;;;34.33;21.62;99561.19;4424881;32;19965;-69
2022/05/23 02:42:04;;;;;;;;;;;;;;;34.46;21.38;99556.91;4424560;32;20022;-69
2022/05/23 02:44:30;;;;;;;;;;;;;;;34.30;21.43;99560.28;4422354;32;20469;-68
2022/05/23 02:46:55;;;;;;;;;;;;;;;34.74;21.01;99556.50;4421464;32;20038;-69
2022/05/23 02:49:21;;;;;;;;;;;;;;;34.41;20.99;99552.22;4421226;32;20078;-69
2022/05/23 02:51:47;;;;;;;;;;;;;;;34.06;21.49;99549.97;4421244;32;20390;-70
2022/05/23 02:54:13;;;;;;;;;;;;;;;34.46;21.14;99545.22;4422593;32;19989;-70
2022/05/23 02:56:38;;;;;;;;;;;;;;;34.04;21.39;99549.84;4422473;32;20346;-70
2022/05/23 02:59:04;;;;;;;;;;;;;;;33.95;21.36;99535.34;4423242;32;19989;-70
2022/05/23 03:01:29;;;;;;;;;;;;;;;33.98;21.32;99548.66;4423337;32;20422;-69
2022/05/23 03:03:55;;;;;;;;;;;;;;;33.87;21.55;99541.41;4424292;32;20019;-69
2022/05/23 03:06:20;;;;;;;;;;;;;;;34.07;21.17;99539.81;4422525;32;20289;-69
2022/05/23 03:08:46;;;;;;;;;;;;;;;34.11;21.28;99534.22;4420850;32;20034;-69
2022/05/23 03:11:11;;;;;;;;;;;;;;;34.04;21.26;99537.38;4423353;32;20013;-69
2022/05/23 03:13:37;;;;;;;;;;;;;;;34.07;21.28;99533.22;4424638;32;19994;-69
2022/05/23 03:16:10;;;;;;;;;;;;;;;34.40;20.96;99531.00;4422272;32;20059;-69
2022/05/23 03:18:36;;;;;;;;;;;;;;;34.45;20.95;99518.16;4423751;32;19957;-69
2022/05/23 03:21:05;;;;;;;;;;;;;;;34.81;20.71;99522.59;4423505;32;20001;-70
2022/05/23 03:29:03;;;;;;;;;;;;;;;34.57;20.78;99512.31;4422403;32;19945;-69
2022/05/23 03:31:29;;;;;;;;;;;;;;;34.68;20.80;99512.31;4423244;32;20382;-69
2022/05/23 03:33:55;;;;;;;;;;;;;;;34.86;20.61;99507.59;4423293;32;19973;-69
2022/05/23 03:36:21;;;;;;;;;;;;;;;34.72;20.78;99505.94;4421604;32;19968;-68
2022/05/23 03:38:47;;;;;;;;;;;;;;;34.79;20.69;99505.69;4421904;32;19998;-68
2022/05/23 03:41:13;;;;;;;;;;;;;;;34.52;20.90;99507.59;4423037;32;20340;-69
2022/05/23 03:43:39;;;;;;;;;;;;;;;34.53;21.00;99492.38;4419405;32;19984;-70
2022/05/23 03:46:06;;;;;;;;;;;;;;;33.89;21.69;99499.91;4422255;32;19965;-69
2022/05/23 03:48:32;;;;;;;;;;;;;;;34.10;21.51;99497.69;4421696;32;20524;-70
2022/05/23 03:51:00;;;;;;;;;;;;;;;33.50;22.10;99504.63;4425290;32;19988;-70
2022/05/23 03:53:26;;;;;;;;;;;;;;;33.87;21.70;99491.03;4420952;32;20312;-69
2022/05/23 03:55:52;;;;;;;;;;;;;;;34.13;21.44;99495.63;4422701;32;20515;-69
2022/05/23 03:58:17;;;;;;;;;;;;;;;34.25;21.25;99496.41;4422420;32;20506;-70
2022/05/23 04:00:48;;;;;;;;;;;;;;;34.03;21.38;99489.94;4423244;32;20383;-69
2022/05/23 04:03:17;;;;;;;;;;;;;;;33.47;21.66;99483.28;4423566;32;19972;-69
2022/05/23 04:05:43;;;;;;;;;;;;;;;33.33;21.82;99482.31;4421834;32;20377;-69
2022/05/23 04:08:09;;;;;;;;;;;;;;;33.02;21.74;99472.16;4421774;32;20607;-69
2022/05/23 04:10:35;;;;;;;;;;;;;;;33.63;21.24;99471.94;4424207;32;20003;-70
2022/05/23 04:13:02;;;;;;;;;;;;;;;33.77;21.16;99478.66;4423469;32;20283;-69
2022/05/23 04:15:29;;;;;;;;;;;;;;;33.90;20.83;99483.94;4422015;32;20016;-69
2022/05/23 04:17:55;;;;;;;;;;;;;;;33.54;21.27;99484.47;4421826;32;19992;-68
2022/05/23 04:20:20;;;;;;;;;;;;;;;33.27;21.42;99481.16;4423465;32;20423;-70
2022/05/23 04:22:46;;;;;;;;;;;;;;;33.67;21.00;99480.94;4422557;32;20201;-69
2022/05/23 04:25:13;;;;;;;;;;;;;;;33.96;20.75;99472.66;4421638;32;20009;-69
2022/05/23 04:27:39;;;;;;;;;;;;;;;33.69;20.80;99476.00;4421102;32;19976;-69
2022/05/23 04:30:07;;;;;;;;;;;;;;;33.83;20.65;99476.13;4421116;32;19973;-69
2022/05/23 04:35:18;;;;;;;;;;;;;;;33.69;20.71;99478.16;4423190;32;19949;-69
2022/05/23 04:37:46;;;;;;;;;;;;;;;33.09;21.42;99474.87;4422255;32;20530;-69
2022/05/23 04:40:13;;;;;;;;;;;;;;;32.77;21.92;99468.97;4422226;32;20067;-69
2022/05/23 04:42:39;;;;;;;;;;;;;;;33.36;21.28;99460.66;4422900;32;19949;-69
2022/05/23 04:45:05;;;;;;;;;;;;;;;33.11;21.53;99460.44;4421615;32;20242;-69
2022/05/23 04:50:16;;;;;;;;;;;;;;;33.32;21.22;99454.56;4422041;32;20290;-69
2022/05/23 04:52:42;;;;;;;;;;;;;;;33.24;21.22;99456.16;4422485;32;20016;-69
2022/05/23 04:55:08;;;;;;;;;;;;;;;33.23;21.25;99454.66;4421194;32;20354;-69
2022/05/23 04:57:34;;;;;;;;;;;;;;;32.78;21.66;99459.59;4422589;32;20372;-69
2022/05/23 05:00:00;;;;;;;;;;;;;;;33.30;21.36;99447.81;4420771;32;19996;-69
2022/05/23 05:02:26;;;;;;;;;;;;;;;33.47;21.20;99450.44;4421508;32;19966;-69
2022/05/23 05:04:51;;;;;;;;;;;;;;;33.39;21.37;99441.16;4422887;32;20018;-69
2022/05/23 05:07:16;;;;;;;;;;;;;;;33.29;21.64;99443.38;4422436;32;20004;-69
2022/05/23 05:09:42;;;;;;;;;;;;;;;32.46;22.42;99443.56;4422571;32;20000;-69
2022/05/23 05:12:08;;;;;;;;;;;;;;;33.33;21.68;99443.66;4422850;32;20409;-69
2022/05/23 05:14:34;;;;;;;;;;;;;;;33.31;21.56;99440.62;4422823;32;19957;-69
2022/05/23 05:17:00;;;;;;;;;;;;;;;33.31;21.62;99443.53;4418787;32;19996;-69
2022/05/23 05:19:27;;;;;;;;;;;;;;;33.65;21.19;99434.12;4424236;32;20240;-69
2022/05/23 05:21:53;;;;;;;;;;;;;;;33.59;21.37;99436.66;4421767;32;20392;-69
2022/05/23 05:24:18;;;;;;;;;;;;;;;33.52;21.25;99438.41;4420589;32;20076;-69
2022/05/23 05:26:44;;;;;;;;;;;;;;;33.45;21.35;99433.59;4422070;32;20542;-69
2022/05/23 05:29:11;;;;;;;;;;;;;;;33.82;21.16;99437.47;4422649;32;20271;-69
2022/05/23 05:34:15;;;;;;;;;;;;;;;34.39;20.68;99445.50;3951104;32;15725536;-69
2022/05/23 05:36:44;;;;;;;;;;;;;;;34.39;20.68;99445.50;4428170;32;20725;-69
2022/05/23 05:39:12;;;;;;;;;;;;;;;33.91;21.06;99444.59;4411548;32;19961;-69
2022/05/23 05:41:45;;;;;;;;;;;;;;;33.94;21.03;99440.41;4425817;32;19973;-69
2022/05/23 05:44:13;;;;;;;;;;;;;;;33.33;21.65;99441.50;4428753;32;19960;-69
2022/05/23 05:46:42;;;;;;;;;;;;;;;34.03;20.92;99448.28;4426128;32;20012;-69
2022/05/23 05:49:10;;;;;;;;;;;;;;;34.22;20.76;99439.28;4427514;32;20072;-69
2022/05/23 05:51:37;;;;;;;;;;;;;;;33.98;21.07;99432.66;4414228;32;19998;-69
2022/05/23 05:54:04;;;;;;;;;;;;;;;33.90;21.03;99426.31;4425836;32;20364;-69
2022/05/23 05:56:30;;;;;;;;;;;;;;;33.93;21.16;99430.88;4423568;32;20076;-69
2022/05/23 05:58:56;;;;;;;;;;;;;;;33.82;21.19;99431.63;4425093;32;20320;-69
2022/05/23 06:01:21;;;;;;;;;;;;;;;33.88;21.21;99440.03;4427179;32;19976;-69
2022/05/23 06:03:47;;;;;;;;;;;;;;;34.33;20.74;99433.41;4426965;32;20060;-70
2022/05/23 06:11:43;;;;;;;;;;;;;;;34.46;20.49;99434.19;4425569;32;20053;-69
2022/05/23 06:14:09;;;;;;;;;;;;;;;34.72;20.14;99427.78;4426321;32;19969;-69
2022/05/23 06:16:36;;;;;;;;;;;;;;;34.74;19.98;99427.13;4424652;32;20365;-69
2022/05/23 06:19:01;;;;;;;;;;;;;;;35.01;19.54;99425.19;4423356;32;19953;-69
2022/05/23 06:21:28;;;;;;;;;;;;;;;34.87;19.36;99423.56;4427904;32;20049;-69
2022/05/23 06:23:54;;;;;;;;;;;;;;;33.74;19.88;99416.50;4427959;32;19989;-69
2022/05/23 06:26:21;;;;;;;;;;;;;;;34.56;19.13;99412.19;4425649;32;21028;-68
2022/05/23 06:28:47;;;;;;;;;;;;;;;34.88;18.68;99420.00;4424073;32;20366;-68
2022/05/23 06:31:15;;;;;;;;;;;;;;;34.62;18.71;99412.56;4424426;32;20453;-68
2022/05/23 06:33:41;;;;;;;;;;;;;;;33.87;19.41;99407.16;4425342;32;20170;-69
2022/05/23 06:36:07;;;;;;;;;;;;;;;33.39;19.92;99421.50;4422179;32;20063;-69
2022/05/23 06:38:34;;;;;;;;;;;;;;;33.79;19.81;99415.38;4409533;32;19995;-69
2022/05/23 06:41:00;;;;;;;;;;;;;;;34.05;19.78;99416.31;4421814;32;20001;-69
2022/05/23 06:43:25;;;;;;;;;;;;;;;33.75;20.33;99417.28;4422131;32;20405;-69
2022/05/23 06:45:51;;;;;;;;;;;;;;;33.72;20.35;99415.63;4409648;32;19961;-69
2022/05/23 06:48:16;;;;;;;;;;;;;;;33.33;21.06;99414.47;4403589;32;20524;-69
2022/05/23 06:50:44;;;;;;;;;;;;;;;33.44;20.82;99402.12;4404302;32;20021;-69
2022/05/23 06:53:10;;;;;;;;;;;;;;;33.69;20.59;99399.37;4406136;32;20053;-69
2022/05/23 06:55:35;;;;;;;;;;;;;;;33.71;20.57;99400.25;4407624;32;19958;-70
2022/05/23 06:58:01;;;;;;;;;;;;;;;34.11;20.22;99413.75;4409064;32;20026;-70
2022/05/23 07:00:27;;;;;;;;;;;;;;;34.24;19.94;99407.28;4404261;32;21415;-69
2022/05/23 07:02:52;;;;;;;;;;;;;;;33.64;20.42;99400.50;4405237;32;19961;-68
2022/05/23 07:13:35;;;;;;;;;;;;;;;34.85;19.11;99394.19;4406517;32;19965;-70
2022/05/23 07:16:02;;;;;;;;;;;;;;;34.80;18.86;99396.12;4408755;32;19953;-70
2022/05/23 07:18:29;;;;;;;;;;;;;;;35.53;18.27;99387.28;4406111;32;20032;-70
2022/05/23 07:20:56;;;;;;;;;;;;;;;34.96;18.73;99394.19;4411200;32;20622;-70
2022/05/23 07:23:22;;;;;;;;;;;;;;;35.79;18.03;99390.91;4407735;32;19986;-70
2022/05/23 07:25:48;;;;;;;;;;;;;;;36.49;17.54;99400.66;4405600;32;20442;-70
2022/05/23 07:28:14;;;;;;;;;;;;;;;35.75;18.01;99394.38;4407821;32;19977;-70
2022/05/23 07:30:42;;;;;;;;;;;;;;;35.96;17.78;99388.25;4409954;32;20036;-69
2022/05/23 07:33:08;;;;;;;;;;;;;;;35.97;17.91;99383.91;4410284;32;20012;-69
2022/05/23 07:35:34;;;;;;;;;;;;;;;35.83;18.02;99386.06;4410015;32;20006;-69
2022/05/23 07:37:59;;;;;;;;;;;;;;;35.37;18.14;99380.50;4411470;32;20495;-69
2022/05/23 07:40:25;;;;;;;;;;;;;;;34.73;18.76;99373.78;4408041;32;19996;-70
2022/05/23 07:42:51;;;;;;;;;;;;;;;35.67;18.12;99382.22;4410644;32;19989;-69
2022/05/23 07:45:17;;;;;;;;;;;;;;;36.10;17.79;99379.47;4405796;32;20009;-69
2022/05/23 07:47:43;;;;;;;;;;;;;;;36.90;17.12;99369.09;4406360;32;20023;-69
2022/05/23 07:50:10;;;;;;;;;;;;;;;37.10;16.96;99363.47;4405832;32;19972;-70
2022/05/23 07:52:35;;;;;;;;;;;;;;;36.28;17.33;99362.16;4405950;32;20002;-71
2022/05/23 08:00:32;;;;;;;;;;;;;;;35.51;18.31;99363.00;4407954;32;19957;-71
2022/05/23 08:05:35;;;;;;;;;;;;;;;36.32;17.60;99347.72;3945256;32;15726645;-71
2022/05/23 08:08:01;;;;;;;;;;;;;;;36.32;17.60;99347.72;4421745;32;19969;-70
2022/05/23 08:10:27;;;;;;;;;;;;;;;35.67;17.90;99352.94;4420312;32;20487;-71
2022/05/23 08:12:54;;;;;;;;;;;;;;;35.67;17.86;99352.19;4417869;32;19961;-71
2022/05/23 08:15:21;;;;;;;;;;;;;;;35.87;17.78;99350.41;4419859;32;20382;-70
2022/05/23 08:17:47;;;;;;;;;;;;;;;35.20;18.40;99345.87;4423158;32;19961;-70
2022/05/23 08:20:13;;;;;;;;;;;;;;;35.55;18.17;99358.13;4422369;32;20008;-70
2022/05/23 08:22:38;;;;;;;;;;;;;;;35.92;17.92;99355.09;4421020;32;20437;-70
2022/05/23 08:25:05;;;;;;;;;;;;;;;35.69;18.19;99349.38;4421925;32;20012;-69
2022/05/23 08:27:32;;;;;;;;;;;;;;;36.04;17.77;99341.84;4427056;32;20426;-69
2022/05/23 08:29:58;;;;;;;;;;;;;;;35.60;17.97;99336.47;4424666;32;19985;-69
2022/05/23 08:32:25;;;;;;;;;;;;;;;35.75;18.13;99335.84;4423045;32;19993;-70
2022/05/23 08:34:50;;;;;;;;;;;;;;;36.55;17.29;99342.34;4422690;32;20009;-69
2022/05/23 08:37:16;;;;;;;;;;;;;;;36.52;16.96;99334.09;4426654;32;20003;-70
2022/05/23 08:39:42;;;;;;;;;;;;;;;36.62;16.58;99343.44;4418036;32;19989;-71
2022/05/23 08:42:28;;;;;;;;;;;;;;;37.26;16.31;99329.84;4416026;32;19961;-70
2022/05/23 08:45:01;;;;;;;;;;;;;;;37.23;16.47;99334.09;4420551;32;19996;-70
2022/05/23 08:47:32;;;;;;;;;;;;;;;37.53;16.36;99326.00;4419823;32;20377;-69
2022/05/23 08:52:40;;;;;;;;;;;;;;;38.92;15.21;99327.91;3946093;32;15721993;-70
2022/05/23 08:55:11;;;;;;;;;;;;;;;38.92;15.21;99327.91;4419576;32;19993;-70
2022/05/23 08:57:57;;;;;;;;;;;;;;;38.61;15.19;99321.41;4419583;32;20031;-71
2022/05/23 09:00:25;;;;;;;;;;;;;;;37.72;15.99;99328.38;4419385;32;20008;-70
2022/05/23 09:02:52;;;;;;;;;;;;;;;38.28;15.73;99322.16;4419034;32;20104;-70
2022/05/23 09:05:20;;;;;;;;;;;;;;;38.03;15.84;99318.81;4417765;32;19989;-71
2022/05/23 09:07:48;;;;;;;;;;;;;;;37.71;15.97;99324.72;4402058;32;19988;-70
2022/05/23 09:10:20;;;;;;;;;;;;;;;37.56;15.98;99336.41;4420789;32;19953;-70
2022/05/23 09:12:45;;;;;;;;;;;;;;;37.89;15.70;99330.66;4419214;32;19957;-70
2022/05/23 09:15:12;;;;;;;;;;;;;;;37.52;16.10;99336.22;4419435;32;20342;-70
2022/05/23 09:17:42;;;;;;;;;;;;;;;37.67;16.08;99324.50;4420738;32;20249;-70
2022/05/23 09:20:12;;;;;;;;;;;;;;;37.51;16.26;99323.72;4421114;32;20428;-70
2022/05/23 09:22:47;;;;;;;;;;;;;;;37.88;15.99;99320.31;4418815;32;20005;-70
2022/05/23 09:25:14;;;;;;;;;;;;;;;38.10;15.58;99314.75;4407074;32;20471;-70
2022/05/23 09:27:41;;;;;;;;;;;;;;;37.94;15.80;99332.34;4416785;32;20040;-70
2022/05/23 09:30:09;;;;;;;;;;;;;;;37.63;16.13;99330.16;4420460;32;20323;-70
2022/05/23 09:32:38;;;;;;;;;;;;;;;38.47;15.51;99323.72;4401430;32;20023;-70
2022/05/23 09:35:21;;;;;;;;;;;;;;;38.68;15.33;99321.00;4419182;32;20025;-70
2022/05/23 09:38:02;;;;;;;;;;;;;;;38.54;15.39;99316.72;4412413;32;20444;-70
2022/05/23 09:40:30;;;;;;;;;;;;;;;37.79;15.95;99315.50;4420058;32;20035;-70
2022/05/23 09:49:21;;;;;;;;;;;;;;;39.17;14.93;99309.09;4418885;32;20007;-70
2022/05/23 09:51:48;;;;;;;;;;;;;;;39.13;14.78;99297.16;4418266;32;20645;-70
2022/05/23 09:54:17;;;;;;;;;;;;;;;39.26;14.35;99290.31;4416960;32;19997;-69
2022/05/23 09:56:44;;;;;;;;;;;;;;;39.02;14.58;99290.09;4417439;32;20672;-69
2022/05/23 09:59:21;;;;;;;;;;;;;;;38.69;15.01;99284.31;4419469;32;20229;-69
2022/05/23 10:01:48;;;;;;;;;;;;;;;39.11;14.60;99276.50;4413387;32;20001;-69
2022/05/23 10:04:17;;;;;;;;;;;;;;;38.94;14.83;99280.94;4400589;32;19996;-69
2022/05/23 10:06:48;;;;;;;;;;;;;;;38.82;15.02;99270.84;4406092;32;21084;-70
2022/05/23 10:09:34;;;;;;;;;;;;;;;39.45;14.55;99269.78;4407131;32;20021;-69
2022/05/23 10:12:02;;;;;;;;;;;;;;;39.84;14.17;99269.06;4404950;32;19989;-70
2022/05/23 10:14:41;;;;;;;;;;;;;;;40.07;13.86;99270.63;4407011;32;20052;-70
2022/05/23 10:17:08;;;;;;;;;;;;;;;40.63;12.94;99258.66;4407939;32;20513;-70
2022/05/23 10:19:35;;;;;;;;;;;;;;;40.39;12.87;99269.63;4405045;32;19969;-70
2022/05/23 10:25:05;;;;;;;;;;;;;;;40.19;12.98;99251.22;3944252;32;15728360;-70
2022/05/23 10:27:35;;;;;;;;;;;;;;;40.19;12.98;99251.22;4418011;32;19962;-70
2022/05/23 10:30:05;;;;;;;;;;;;;;;40.11;12.92;99256.81;4417648;32;20009;-69
2022/05/23 10:35:17;;;;;;;;;;;;;;;41.02;12.28;99246.69;3943118;32;15723558;-71
2022/05/23 10:37:44;;;;;;;;;;;;;;;41.02;12.28;99246.69;4414862;32;20296;-70
2022/05/23 10:45:39;;;;;;;;;;;;;;;42.33;11.46;99232.88;3942362;32;15727462;-70
2022/05/23 10:48:20;;;;;;;;;;;;;;;42.33;11.46;99232.88;4428959;32;20005;-70
2022/05/23 10:50:56;;;;;;;;;;;;;;;42.42;11.31;99232.38;4427669;32;20497;-70
2022/05/23 10:53:41;;;;;;;;;;;;;;;43.00;10.57;99224.97;4428919;32;21804;-70
2022/05/23 10:59:05;;;;;;;;;;;;;;;44.54;9.98;99220.78;3943509;32;15723540;-70
2022/05/23 11:01:51;;;;;;;;;;;;;;;44.54;9.98;99220.78;4417905;32;19969;-70
2022/05/23 11:07:18;;;;;;;;;;;;;;;43.53;10.55;99211.38;3945064;32;15717386;-69
2022/05/23 11:15:20;;;;;;;;;;;;;;;43.19;10.80;99196.56;3943084;32;15723456;-70
2022/05/23 11:18:05;;;;;;;;;;;;;;;42.73;11.03;99196.19;4422694;32;20406;-70
2022/05/23 11:20:34;;;;;;;;;;;;;;;43.01;10.76;99199.81;4415232;32;19993;-70
2022/05/23 11:23:04;;;;;;;;;;;;;;;41.88;11.63;99203.50;4416282;32;20008;-70
2022/05/23 11:25:30;;;;;;;;;;;;;;;42.75;10.88;99193.31;4417506;32;19991;-69
2022/05/23 11:33:45;;;;;;;;;;;;;;;43.20;10.68;99200.25;4418291;32;19989;-69
2022/05/23 11:36:15;;;;;;;;;;;;;;;41.67;11.51;99205.16;4419182;32;21469;-69
2022/05/23 11:38:45;;;;;;;;;;;;;;;40.74;12.51;99206.66;4417412;32;20117;-69
2022/05/23 11:41:26;;;;;;;;;;;;;;;40.16;13.20;99198.75;4417566;32;20244;-69
2022/05/23 11:43:52;;;;;;;;;;;;;;;39.26;13.91;99193.94;4416932;32;20341;-68
2022/05/23 11:46:24;;;;;;;;;;;;;;;39.64;13.60;99198.34;4418352;32;20001;-69
2022/05/23 11:48:53;;;;;;;;;;;;;;;39.33;13.61;99197.91;4416423;32;20388;-67
2022/05/23 11:51:30;;;;;;;;;;;;;;;39.77;13.41;99196.62;4418573;32;20472;-69
2022/05/23 11:59:11;;;;;;;;;;;;;;;40.43;13.08;99204.88;3949193;31;15721094;-69
2022/05/23 12:01:37;;;;;;;;;;;;;;;40.43;13.08;99204.88;4405224;32;20523;-69
2022/05/23 12:06:41;;;;;;;;;;;;;;;41.33;12.52;99196.03;3950400;31;15718423;-70
2022/05/23 12:11:51;;;;;;;;;;;;;;;42.94;11.25;99197.41;3935124;32;15723496;-71
2022/05/23 12:22:25;;;;;;;;;;;;;;;43.12;11.02;99185.28;3944779;32;15723629;-70
2022/05/23 12:40:59;;;;;;;;;;;;;;;40.32;12.79;99184.59;3945983;32;15721826;-70
2022/05/23 12:46:25;;;;;;;;;;;;;;;41.44;12.32;99165.34;3945698;32;15725459;-71
2022/05/23 12:51:47;;;;;;;;;;;;;;;41.92;11.71;99165.97;3940101;31;15716904;-70
2022/05/23 12:54:23;;;;;;;;;;;;;;;41.85;12.23;99163.53;4421067;32;20332;-69
2022/05/23 12:57:01;;;;;;;;;;;;;;;41.40;12.63;99179.22;4419152;32;20376;-70
2022/05/23 13:02:05;;;;;;;;;;;;;;;40.48;13.12;99173.31;3942643;32;15724184;-70
2022/05/23 13:04:35;;;;;;;;;;;;;;;40.48;13.12;99173.31;4412232;32;20705;-70
2022/05/23 13:07:05;;;;;;;;;;;;;;;39.18;13.88;99164.22;4409470;32;20010;-69
2022/05/23 13:09:38;;;;;;;;;;;;;;;39.83;13.55;99160.75;4416361;32;20419;-70
2022/05/23 13:12:06;;;;;;;;;;;;;;;39.47;13.92;99160.94;4413547;32;20406;-70
2022/05/23 13:14:51;;;;;;;;;;;;;;;39.31;14.08;99169.13;4411537;32;20031;-70
2022/05/23 13:17:36;;;;;;;;;;;;;;;39.30;14.06;99158.03;4399978;32;20125;-70
2022/05/23 13:22:48;;;;;;;;;;;;;;;39.11;14.24;99164.69;4412595;32;20427;-70
2022/05/23 13:25:14;;;;;;;;;;;;;;;38.50;14.89;99160.72;4413180;32;20057;-70
2022/05/23 13:27:49;;;;;;;;;;;;;;;38.78;14.65;99159.69;4413042;32;19997;-70
2022/05/23 13:32:59;;;;;;;;;;;;;;;38.66;14.49;99152.56;3946574;32;15722497;-70
2022/05/23 13:35:25;;;;;;;;;;;;;;;38.66;14.49;99152.56;4418623;32;20576;-70
2022/05/23 13:37:51;;;;;;;;;;;;;;;37.60;15.26;99157.53;4418135;32;20046;-70
2022/05/23 13:40:23;;;;;;;;;;;;;;;37.40;15.55;99157.38;4406314;32;19982;-70
2022/05/23 13:42:49;;;;;;;;;;;;;;;36.97;15.91;99164.88;4415506;32;20227;-70
2022/05/23 13:45:16;;;;;;;;;;;;;;;36.47;16.55;99159.50;4418859;32;19992;-71
2022/05/23 13:50:32;;;;;;;;;;;;;;;36.88;16.62;99149.06;3942668;32;15723042;-69
2022/05/23 13:53:01;;;;;;;;;;;;;;;36.88;16.62;99149.06;4407507;32;20005;-70
2022/05/23 13:55:30;;;;;;;;;;;;;;;36.30;16.90;99140.34;4420018;32;20017;-70
2022/05/23 13:57:59;;;;;;;;;;;;;;;36.42;16.85;99143.12;4421597;32;21266;-69
2022/05/23 14:00:30;;;;;;;;;;;;;;;37.03;16.35;99138.75;4418604;32;20321;-70
2022/05/23 14:02:58;;;;;;;;;;;;;;;37.04;16.65;99128.53;4418623;32;19984;-70
2022/05/23 14:05:27;;;;;;;;;;;;;;;36.25;17.47;99123.94;4419647;32;20004;-70
2022/05/23 14:07:54;;;;;;;;;;;;;;;35.60;18.27;99140.37;4420201;32;20061;-71
2022/05/23 14:10:22;;;;;;;;;;;;;;;35.73;18.16;99130.81;4424887;32;19988;-72
2022/05/23 14:12:48;;;;;;;;;;;;;;;35.38;18.53;99141.38;4419005;32;20189;-71
2022/05/23 14:15:19;;;;;;;;;;;;;;;36.25;17.77;99135.66;4417125;32;20378;-70
2022/05/23 14:17:48;;;;;;;;;;;;;;;35.85;18.09;99134.41;4420417;32;20357;-71
2022/05/23 14:25:44;;;;;;;;;;;;;;;35.64;18.17;99137.66;3942046;32;15726414;-71
2022/05/23 14:28:22;;;;;;;;;;;;;;;35.36;18.57;99136.19;4413919;32;20390;-71
2022/05/23 14:30:52;;;;;;;;;;;;;;;35.65;18.38;99120.88;4414488;32;20520;-71
2022/05/23 14:36:22;;;;;;;;;;;;;;;35.92;18.51;99121.56;3942913;32;15723362;-71
2022/05/23 14:44:02;;;;;;;;;;;;;;;35.65;18.59;99121.62;3944398;32;15728394;-72
2022/05/23 14:46:30;;;;;;;;;;;;;;;35.74;18.36;99126.47;4416167;32;20008;-72
2022/05/23 14:48:59;;;;;;;;;;;;;;;35.79;18.32;99128.19;4418878;32;20024;-70
2022/05/23 14:51:26;;;;;;;;;;;;;;;36.55;17.76;99131.31;4421153;32;20061;-70
2022/05/23 14:56:49;;;;;;;;;;;;;;;36.32;18.31;99131.66;3946858;31;15717467;-71
2022/05/23 15:02:05;;;;;;;;;;;;;;;35.29;19.15;99128.47;4418022;32;20037;-71
2022/05/23 15:04:31;;;;;;;;;;;;;;;34.56;20.13;99128.78;4407442;32;20213;-71
2022/05/23 15:06:58;;;;;;;;;;;;;;;34.74;21.35;99121.03;4412101;32;19981;-71
2022/05/23 15:09:24;;;;;;;;;;;;;;;33.90;20.85;99122.00;4420642;32;19970;-71
2022/05/23 15:11:50;;;;;;;;;;;;;;;33.03;22.22;99118.84;4416652;32;20050;-70
2022/05/23 15:14:16;;;;;;;;;;;;;;;32.95;21.79;99123.41;4419437;32;20052;-70
2022/05/23 15:16:42;;;;;;;;;;;;;;;33.04;21.62;99114.53;4418405;32;20393;-70
2022/05/23 15:19:09;;;;;;;;;;;;;;;33.35;21.53;99117.16;4416567;32;20081;-70
2022/05/23 15:21:34;;;;;;;;;;;;;;;34.71;20.56;99110.63;4417877;32;20275;-71
2022/05/23 15:24:00;;;;;;;;;;;;;;;34.45;21.30;99105.50;4414547;32;20690;-71